This is the latest recevied weather packets stored in our database for station/object K4MGY-13. If no packets are shown the sender has not sent any weather packets the latest 1 day(s).
| Time | Temp. | Humidity | Pressure | Rain* | Wind** | Luminosity | Snow |
|---|---|---|---|---|---|---|---|
| 1778065750 | 14.44° C | 93% | 1009.1 hPa | 3.81 mm | - | - | - |
| 1778065450 | 14.44° C | 93% | 1008.5 hPa | 3.56 mm | - | - | - |
| 1778062930 | 17.22° C | 90% | 1009.5 hPa | 8.38 mm | - | - | - |
| 1778062629 | 17.78° C | 92% | 1009 hPa | 8.64 mm | - | - | - |
| 1778062000 | 18.89° C | 95% | 1008.5 hPa | 9.4 mm | - | - | - |
| 1778061370 | 18.89° C | 94% | 1008.1 hPa | 7.87 mm | - | - | - |
| 1778061070 | 18.89° C | 94% | 1007.8 hPa | 7.62 mm | - | - | - |
| 1778059151 | 18.89° C | 91% | 1007.5 hPa | 3.81 mm | - | - | - |
| 1778057201 | 20.56° C | 84% | 1007.1 hPa | 1.27 mm | - | - | - |
| 1778056570 | 21.11° C | 79% | 1006.8 hPa | 0.51 mm | - | - | - |
| 1778055941 | 21.67° C | 74% | 1006.1 hPa | 0 mm | - | - | - |
| 1778055610 | 22.22° C | 72% | 1006.1 hPa | 0 mm | - | - | - |
| 1778054650 | 22.22° C | 71% | 1005.8 hPa | 0 mm | - | - | - |
| 1778054350 | 22.22° C | 70% | 1005.8 hPa | 0 mm | - | - | - |
| 1778054020 | 22.22° C | 70% | 1005.8 hPa | 0 mm | - | - | - |
| 1778053690 | 21.67° C | 70% | 1005.8 hPa | 0 mm | - | - | - |
| 1778053362 | 21.67° C | 70% | 1005.8 hPa | 0 mm | - | - | - |
| 1778053060 | 21.67° C | 69% | 1005.8 hPa | 0 mm | - | - | - |
| 1778052162 | 21.67° C | 68% | 1006.1 hPa | 0 mm | - | - | - |
| 1778051260 | 21.67° C | 68% | 1005.8 hPa | 0 mm | - | - | - |
| 1778049341 | 21.67° C | 67% | 1005.8 hPa | 0 mm | - | - | - |
| 1778047450 | 21.67° C | 66% | 1006.1 hPa | 0 mm | - | - | - |
| 1778045621 | 21.67° C | 65% | 1006.8 hPa | 0 mm | - | - | - |
| 1778044059 | 21.11° C | 64% | 1007.1 hPa | 0 mm | - | - | - |
| 1778043432 | 21.11° C | 64% | 1007.1 hPa | 0 mm | - | - | - |
* Rain latest hour (hover to see other rain measurements)
** Current wind speed in m/s (hover to see current wind gust speed)